Time;durP1;ratioP1;P1;durP2;ratioP2;P2;SDS_P1;SDS_P2;PMS_P1;PMS_P2;Temp;Humidity;BMP_temperature;BMP_pressure;BME280_temperature;BME280_humidity;BME280_pressure;Samples;Min_cycle;Max_cycle;Signal;HPM_P1;HPM_P2
2022/08/29 00:00:43;;;;;;;5.53;4.00;;;;;;;;;;5034579;28;20083;-69
2022/08/29 00:03:10;;;;;;;4.30;3.90;;;;;;;;;;5034273;28;20044;-69
2022/08/29 00:05:36;;;;;;;5.20;4.53;;;;;;;;;;5034521;28;20088;-69
2022/08/29 00:08:04;;;;;;;4.85;4.32;;;;;;;;;;5034308;28;20053;-69
2022/08/29 00:10:31;;;;;;;5.25;4.55;;;;;;;;;;5034268;28;20041;-69
2022/08/29 00:12:57;;;;;;;6.22;4.72;;;;;;;;;;5016624;28;20361;-69
2022/08/29 00:15:23;;;;;;;7.53;4.70;;;;;;;;;;5034489;28;20042;-69
2022/08/29 00:17:50;;;;;;;5.68;3.92;;;;;;;;;;5034775;28;20492;-69
2022/08/29 00:20:18;;;;;;;6.43;4.20;;;;;;;;;;5034058;28;20033;-69
2022/08/29 00:22:44;;;;;;;4.60;4.30;;;;;;;;;;5034418;28;20132;-69
2022/08/29 00:25:10;;;;;;;5.40;4.60;;;;;;;;;;5034436;28;20496;-69
2022/08/29 00:27:37;;;;;;;4.97;4.50;;;;;;;;;;5033896;28;20111;-69
2022/08/29 00:30:04;;;;;;;4.60;4.20;;;;;;;;;;5035176;28;20041;-69
2022/08/29 00:32:33;;;;;;;4.70;4.30;;;;;;;;;;5038456;28;20045;-69
2022/08/29 00:35:08;;;;;;;5.20;4.10;;;;;;;;;;5038304;28;20033;-69
2022/08/29 00:37:35;;;;;;;5.07;4.55;;;;;;;;;;5038187;28;20128;-69
2022/08/29 00:40:02;;;;;;;5.32;4.55;;;;;;;;;;5038672;28;20046;-69
2022/08/29 00:42:28;;;;;;;5.05;4.45;;;;;;;;;;5037813;28;20455;-69
2022/08/29 00:44:54;;;;;;;8.13;4.65;;;;;;;;;;5038201;28;20077;-69
2022/08/29 00:47:22;;;;;;;4.35;4.00;;;;;;;;;;5038426;28;20049;-69
2022/08/29 00:49:50;;;;;;;5.22;4.70;;;;;;;;;;5038141;28;20471;-69
2022/08/29 00:52:18;;;;;;;4.75;4.35;;;;;;;;;;5038109;28;20037;-69
2022/08/29 00:54:47;;;;;;;4.82;4.43;;;;;;;;;;5038035;28;20045;-69
2022/08/29 00:57:14;;;;;;;5.65;4.28;;;;;;;;;;5038024;28;20041;-69
2022/08/29 00:59:41;;;;;;;5.82;4.90;;;;;;;;;;5037450;28;20046;-69
2022/08/29 01:02:09;;;;;;;6.22;4.55;;;;;;;;;;5037922;28;20037;-69
2022/08/29 01:04:37;;;;;;;5.30;4.80;;;;;;;;;;5037786;28;20067;-69
2022/08/29 01:07:03;;;;;;;5.65;4.38;;;;;;;;;;5038124;28;20133;-69
2022/08/29 01:09:30;;;;;;;4.32;3.95;;;;;;;;;;5037737;28;20190;-69
2022/08/29 01:12:14;;;;;;;4.85;4.43;;;;;;;;;;5037302;28;20076;-69
2022/08/29 01:14:46;;;;;;;4.80;4.40;;;;;;;;;;5037101;28;20044;-69
2022/08/29 01:17:14;;;;;;;6.28;4.80;;;;;;;;;;5037343;28;20172;-69
2022/08/29 01:19:46;;;;;;;5.93;4.43;;;;;;;;;;5037313;28;20179;-69
2022/08/29 01:22:28;;;;;;;5.40;5.00;;;;;;;;;;5038097;28;20483;-69
2022/08/29 01:24:56;;;;;;;5.20;4.72;;;;;;;;;;5036906;28;20532;-69
2022/08/29 01:27:23;;;;;;;4.53;4.15;;;;;;;;;;5037257;28;20045;-69
2022/08/29 01:29:49;;;;;;;6.47;4.50;;;;;;;;;;5037414;28;20044;-69
2022/08/29 01:32:16;;;;;;;4.43;4.03;;;;;;;;;;5037276;28;20056;-69
2022/08/29 01:34:42;;;;;;;4.90;4.38;;;;;;;;;;5037038;28;20124;-69
2022/08/29 01:37:11;;;;;;;4.53;4.13;;;;;;;;;;5037820;28;20033;-69
2022/08/29 01:39:38;;;;;;;4.63;4.22;;;;;;;;;;5037249;28;20037;-69
2022/08/29 01:42:09;;;;;;;4.95;4.55;;;;;;;;;;5036555;28;20373;-69
2022/08/29 01:44:36;;;;;;;7.80;4.72;;;;;;;;;;5037155;28;20041;-69
2022/08/29 01:47:03;;;;;;;5.50;4.50;;;;;;;;;;5036886;28;20516;-69
2022/08/29 01:49:31;;;;;;;5.13;4.68;;;;;;;;;;5036975;28;20503;-69
2022/08/29 01:51:57;;;;;;;6.25;4.97;;;;;;;;;;5037008;28;20045;-69
2022/08/29 01:54:23;;;;;;;6.05;4.60;;;;;;;;;;5037240;28;20085;-69
2022/08/29 01:56:50;;;;;;;6.25;4.80;;;;;;;;;;5036788;28;20512;-69
2022/08/29 01:59:17;;;;;;;6.35;4.78;;;;;;;;;;5036257;28;20373;-69
2022/08/29 02:01:51;;;;;;;5.18;4.68;;;;;;;;;;5036783;28;20034;-69
2022/08/29 02:04:18;;;;;;;5.00;4.50;;;;;;;;;;5036783;28;20041;-69
2022/08/29 02:06:44;;;;;;;5.40;4.90;;;;;;;;;;5036931;28;20073;-69
2022/08/29 02:09:11;;;;;;;5.57;4.80;;;;;;;;;;5037166;28;20048;-69
2022/08/29 02:11:38;;;;;;;6.20;4.50;;;;;;;;;;5036365;28;20433;-69
2022/08/29 02:14:05;;;;;;;5.93;4.95;;;;;;;;;;5036320;28;20034;-69
2022/08/29 02:16:31;;;;;;;7.10;4.80;;;;;;;;;;5036564;28;20033;-69
2022/08/29 02:18:58;;;;;;;7.10;4.93;;;;;;;;;;5036517;28;20041;-69
2022/08/29 02:21:26;;;;;;;6.07;4.65;;;;;;;;;;5036411;28;20037;-69
2022/08/29 02:23:52;;;;;;;5.47;4.97;;;;;;;;;;5036429;28;20121;-69
2022/08/29 02:26:19;;;;;;;4.80;4.40;;;;;;;;;;5036300;28;20103;-69
2022/08/29 02:28:46;;;;;;;5.72;4.47;;;;;;;;;;5036093;28;20119;-69
2022/08/29 02:31:12;;;;;;;5.30;4.80;;;;;;;;;;5035984;28;20068;-69
2022/08/29 02:33:39;;;;;;;5.05;4.65;;;;;;;;;;5036129;28;20111;-69
2022/08/29 02:36:06;;;;;;;5.30;4.80;;;;;;;;;;5035856;28;20033;-69
2022/08/29 02:38:32;;;;;;;6.47;4.75;;;;;;;;;;5036472;28;20181;-69
2022/08/29 02:40:58;;;;;;;4.70;4.38;;;;;;;;;;5036055;28;20520;-69
2022/08/29 02:43:25;;;;;;;5.15;4.75;;;;;;;;;;5035804;28;20037;-69
2022/08/29 02:45:51;;;;;;;5.15;4.68;;;;;;;;;;5035914;28;20128;-69
2022/08/29 02:48:18;;;;;;;4.90;4.50;;;;;;;;;;5035570;28;20055;-69
2022/08/29 02:50:49;;;;;;;11.45;4.75;;;;;;;;;;5035917;28;20037;-69
2022/08/29 02:53:18;;;;;;;5.07;4.68;;;;;;;;;;5034939;28;20045;-69
2022/08/29 02:55:48;;;;;;;5.30;4.80;;;;;;;;;;5035835;28;20099;-69
2022/08/29 02:58:14;;;;;;;6.35;4.80;;;;;;;;;;5035825;28;20061;-69
2022/08/29 03:00:41;;;;;;;5.75;5.18;;;;;;;;;;5036283;28;20045;-69
2022/08/29 03:03:07;;;;;;;9.13;5.25;;;;;;;;;;5035549;28;20116;-69
2022/08/29 03:05:35;;;;;;;6.25;5.40;;;;;;;;;;5036161;28;20503;-69
2022/08/29 03:08:03;;;;;;;5.60;5.07;;;;;;;;;;5035468;28;20128;-69
2022/08/29 03:10:29;;;;;;;5.68;5.18;;;;;;;;;;5035784;28;20120;-69
2022/08/29 03:12:55;;;;;;;7.40;5.25;;;;;;;;;;5035614;28;20558;-69
2022/08/29 03:15:22;;;;;;;5.65;5.10;;;;;;;;;;5035432;28;20056;-69
2022/08/29 03:17:48;;;;;;;5.63;4.93;;;;;;;;;;5035934;28;20092;-69
2022/08/29 03:20:16;;;;;;;5.40;4.90;;;;;;;;;;5035625;28;20068;-69
2022/08/29 03:22:43;;;;;;;5.43;4.95;;;;;;;;;;5035237;28;20120;-69
2022/08/29 03:25:11;;;;;;;5.30;4.80;;;;;;;;;;5035840;28;20124;-69
2022/08/29 03:27:37;;;;;;;5.10;4.55;;;;;;;;;;5034932;28;20121;-69
2022/08/29 03:30:04;;;;;;;5.47;4.97;;;;;;;;;;5035182;28;20483;-69
2022/08/29 03:32:30;;;;;;;5.63;5.13;;;;;;;;;;5035713;28;20044;-69
2022/08/29 03:34:56;;;;;;;5.75;5.22;;;;;;;;;;5035114;28;20435;-69
2022/08/29 03:37:25;;;;;;;5.85;5.35;;;;;;;;;;5035422;28;20041;-69
2022/08/29 03:39:51;;;;;;;5.55;4.97;;;;;;;;;;5035243;28;20052;-69
2022/08/29 03:42:17;;;;;;;6.28;5.30;;;;;;;;;;5035228;28;20141;-69
2022/08/29 03:44:43;;;;;;;5.30;4.80;;;;;;;;;;5034960;28;20041;-69
2022/08/29 03:47:10;;;;;;;5.30;4.90;;;;;;;;;;5034883;28;20496;-69
2022/08/29 03:49:36;;;;;;;5.63;5.13;;;;;;;;;;5035066;28;20037;-69
2022/08/29 03:52:02;;;;;;;5.00;4.15;;;;;;;;;;5035115;28;20038;-69
2022/08/29 03:54:29;;;;;;;5.25;4.85;;;;;;;;;;5035018;28;20041;-69
2022/08/29 03:56:55;;;;;;;5.78;5.20;;;;;;;;;;5035167;28;20041;-69
2022/08/29 03:59:21;;;;;;;5.38;4.80;;;;;;;;;;5035073;28;20053;-69
2022/08/29 04:01:48;;;;;;;5.70;5.20;;;;;;;;;;5034963;28;20052;-69
2022/08/29 04:07:01;;;;;;;5.40;4.90;;;;;;;;;;5034950;28;20488;-69
2022/08/29 04:09:27;;;;;;;5.65;4.85;;;;;;;;;;5035522;28;20052;-69
2022/08/29 04:11:54;;;;;;;7.43;5.20;;;;;;;;;;5034814;28;20151;-69
2022/08/29 04:14:20;;;;;;;6.15;5.10;;;;;;;;;;5034843;28;20124;-69
2022/08/29 04:16:50;;;;;;;6.10;5.05;;;;;;;;;;5035055;28;20033;-69
2022/08/29 04:19:20;;;;;;;5.03;4.53;;;;;;;;;;5034156;28;20029;-69
2022/08/29 04:21:47;;;;;;;5.82;5.32;;;;;;;;;;5034839;28;20044;-69
2022/08/29 04:24:13;;;;;;;6.13;5.30;;;;;;;;;;5034722;28;20041;-69
2022/08/29 04:26:40;;;;;;;6.13;5.28;;;;;;;;;;5034616;28;20049;-69
2022/08/29 04:29:10;;;;;;;5.70;5.20;;;;;;;;;;5034270;28;20066;-69
2022/08/29 04:31:37;;;;;;;5.05;4.65;;;;;;;;;;5035221;28;20048;-69
2022/08/29 04:34:04;;;;;;;4.97;4.47;;;;;;;;;;5034527;28;20053;-69
2022/08/29 04:36:30;;;;;;;5.60;4.57;;;;;;;;;;5034517;28;20041;-69
2022/08/29 04:38:57;;;;;;;5.57;4.68;;;;;;;;;;5034962;28;20040;-69
2022/08/29 04:41:23;;;;;;;6.60;4.93;;;;;;;;;;5035349;28;20037;-69
2022/08/29 04:43:49;;;;;;;5.97;5.43;;;;;;;;;;5034298;28;20149;-69
2022/08/29 04:46:15;;;;;;;8.48;5.35;;;;;;;;;;5034468;28;20592;-69
2022/08/29 04:48:41;;;;;;;5.70;5.13;;;;;;;;;;5034165;28;20038;-69
2022/08/29 04:51:08;;;;;;;5.60;5.10;;;;;;;;;;5034187;28;20073;-69
2022/08/29 04:53:34;;;;;;;6.40;5.80;;;;;;;;;;5034472;28;20044;-69
2022/08/29 04:56:08;;;;;;;6.38;5.68;;;;;;;;;;5034091;28;20124;-69
2022/08/29 04:58:38;;;;;;;6.22;5.65;;;;;;;;;;5034388;28;20092;-69
2022/08/29 05:01:05;;;;;;;6.78;4.90;;;;;;;;;;5034423;28;20034;-69
2022/08/29 05:03:31;;;;;;;5.70;5.30;;;;;;;;;;5034371;28;20068;-69
2022/08/29 05:05:58;;;;;;;6.00;5.47;;;;;;;;;;5034324;28;20524;-69
2022/08/29 05:08:25;;;;;;;8.57;5.53;;;;;;;;;;5033671;28;20381;-69
2022/08/29 05:10:51;;;;;;;6.18;5.68;;;;;;;;;;5034335;28;20037;-69
2022/08/29 05:13:18;;;;;;;5.60;5.10;;;;;;;;;;5033797;28;20064;-69
2022/08/29 05:15:44;;;;;;;6.15;5.60;;;;;;;;;;5034415;28;20037;-69
2022/08/29 05:18:12;;;;;;;6.25;5.22;;;;;;;;;;5037716;28;20102;-69
2022/08/29 05:20:41;;;;;;;6.53;5.47;;;;;;;;;;5037837;28;20041;-69
2022/08/29 05:23:07;;;;;;;6.00;5.40;;;;;;;;;;5037591;28;20491;-69
2022/08/29 05:25:34;;;;;;;6.00;5.03;;;;;;;;;;5037860;28;20041;-69
2022/08/29 05:28:00;;;;;;;6.45;4.80;;;;;;;;;;5036962;28;20124;-69
2022/08/29 05:30:27;;;;;;;6.13;5.25;;;;;;;;;;5037668;28;20038;-69
2022/08/29 05:32:56;;;;;;;5.55;4.97;;;;;;;;;;5037318;28;20034;-69
2022/08/29 05:35:22;;;;;;;6.10;5.47;;;;;;;;;;5037925;28;20111;-69
2022/08/29 05:37:49;;;;;;;5.47;5.00;;;;;;;;;;5037285;28;20124;-69
2022/08/29 05:40:15;;;;;;;5.60;4.88;;;;;;;;;;5037838;28;20049;-69
2022/08/29 05:42:41;;;;;;;6.15;4.70;;;;;;;;;;5037593;28;20037;-69
2022/08/29 05:45:08;;;;;;;5.28;4.78;;;;;;;;;;5037425;28;20039;-69
2022/08/29 05:47:34;;;;;;;6.05;4.95;;;;;;;;;;5037482;28;20049;-69
2022/08/29 05:50:00;;;;;;;5.75;5.13;;;;;;;;;;5037568;28;20472;-69
2022/08/29 05:52:27;;;;;;;5.65;5.15;;;;;;;;;;5037325;28;20053;-69
2022/08/29 05:54:53;;;;;;;5.65;4.88;;;;;;;;;;5037293;28;20045;-69
2022/08/29 05:57:20;;;;;;;5.28;4.78;;;;;;;;;;5037507;28;20507;-69
2022/08/29 05:59:48;;;;;;;4.75;4.35;;;;;;;;;;5037087;28;20045;-69
2022/08/29 06:02:14;;;;;;;5.95;4.57;;;;;;;;;;5037416;28;20048;-69
2022/08/29 06:04:40;;;;;;;4.88;4.13;;;;;;;;;;5037086;28;20037;-69
2022/08/29 06:07:07;;;;;;;9.75;5.15;;;;;;;;;;5037332;28;20061;-69
2022/08/29 06:09:33;;;;;;;4.20;3.78;;;;;;;;;;5037061;28;20109;-69
2022/08/29 06:11:59;;;;;;;5.78;4.38;;;;;;;;;;5036712;28;20033;-69
2022/08/29 06:14:25;;;;;;;6.53;4.55;;;;;;;;;;5036832;28;20033;-69
2022/08/29 06:16:53;;;;;;;5.03;3.90;;;;;;;;;;5036532;28;20060;-69
2022/08/29 06:19:19;;;;;;;4.68;4.30;;;;;;;;;;5037012;28;20029;-69
2022/08/29 06:21:46;;;;;;;4.50;4.10;;;;;;;;;;5036234;28;20053;-69
2022/08/29 06:24:12;;;;;;;6.38;4.80;;;;;;;;;;5036098;28;20477;-69
2022/08/29 06:26:38;;;;;;;5.95;4.10;;;;;;;;;;5036050;28;20048;-69
2022/08/29 06:29:05;;;;;;;7.10;4.53;;;;;;;;;;5035599;28;20045;-69
2022/08/29 06:31:31;;;;;;;4.93;4.53;;;;;;;;;;5036298;28;20033;-69
2022/08/29 06:33:59;;;;;;;8.88;4.72;;;;;;;;;;5035983;28;20049;-69
2022/08/29 06:36:25;;;;;;;7.78;4.55;;;;;;;;;;5036085;28;20044;-69
2022/08/29 06:38:52;;;;;;;4.90;4.50;;;;;;;;;;5036483;28;20046;-69
2022/08/29 06:41:18;;;;;;;5.05;4.65;;;;;;;;;;5036366;28;20040;-69
2022/08/29 06:43:45;;;;;;;7.13;5.15;;;;;;;;;;5035897;28;20052;-69
2022/08/29 06:46:31;;;;;;;5.45;4.68;;;;;;;;;;5035634;28;20036;-69
2022/08/29 06:48:59;;;;;;;7.38;4.88;;;;;;;;;;5036429;28;20103;-69
2022/08/29 06:51:25;;;;;;;7.95;5.13;;;;;;;;;;5035835;28;20511;-69
2022/08/29 06:53:51;;;;;;;6.75;5.43;;;;;;;;;;5035894;28;20052;-69
2022/08/29 06:56:17;;;;;;;7.47;5.32;;;;;;;;;;5035668;28;20037;-69
2022/08/29 06:58:44;;;;;;;5.78;4.90;;;;;;;;;;5035096;28;20045;-69
2022/08/29 07:01:12;;;;;;;7.40;5.18;;;;;;;;;;5035349;28;20033;-69
2022/08/29 07:03:38;;;;;;;4.68;4.38;;;;;;;;;;5035692;28;20116;-69
2022/08/29 07:06:05;;;;;;;9.07;4.55;;;;;;;;;;5035478;28;20040;-69
2022/08/29 07:08:31;;;;;;;8.55;4.57;;;;;;;;;;5036390;28;20112;-69
2022/08/29 07:10:57;;;;;;;5.10;4.55;;;;;;;;;;5035587;28;20033;-69
2022/08/29 07:13:23;;;;;;;5.20;4.80;;;;;;;;;;5035074;28;20081;-69
2022/08/29 07:15:50;;;;;;;7.20;4.97;;;;;;;;;;5035435;28;20069;-69
2022/08/29 07:18:17;;;;;;;4.90;4.40;;;;;;;;;;5034818;28;20130;-69
2022/08/29 07:20:43;;;;;;;5.82;4.85;;;;;;;;;;5035933;28;20049;-69
2022/08/29 07:23:09;;;;;;;4.95;4.43;;;;;;;;;;5035391;28;20038;-69
2022/08/29 07:25:35;;;;;;;8.13;5.07;;;;;;;;;;5035210;28;20125;-69
2022/08/29 07:28:02;;;;;;;8.88;5.15;;;;;;;;;;5035352;28;20492;-69
2022/08/29 07:30:28;;;;;;;5.43;4.45;;;;;;;;;;5035348;28;20044;-69
2022/08/29 07:32:55;;;;;;;5.47;4.60;;;;;;;;;;5035143;28;20041;-69
2022/08/29 07:35:21;;;;;;;5.35;4.85;;;;;;;;;;5035090;28;20045;-69
2022/08/29 07:37:47;;;;;;;6.32;5.20;;;;;;;;;;5035039;28;20443;-69
2022/08/29 07:40:16;;;;;;;5.10;4.60;;;;;;;;;;5035300;28;20033;-69
2022/08/29 07:42:42;;;;;;;6.03;4.88;;;;;;;;;;5034733;28;20044;-69
2022/08/29 07:45:10;;;;;;;5.60;4.45;;;;;;;;;;5035439;28;20041;-69
2022/08/29 07:47:36;;;;;;;6.00;4.50;;;;;;;;;;5035343;28;20046;-69
2022/08/29 07:50:04;;;;;;;6.53;4.80;;;;;;;;;;5034877;28;20068;-69
2022/08/29 07:52:30;;;;;;;9.63;5.00;;;;;;;;;;5034836;28;20046;-69
2022/08/29 07:54:56;;;;;;;10.35;4.97;;;;;;;;;;5034897;28;20037;-69
2022/08/29 07:57:22;;;;;;;16.67;5.28;;;;;;;;;;5034909;28;20076;-70
2022/08/29 07:59:49;;;;;;;21.45;5.28;;;;;;;;;;5034624;28;20033;-69
2022/08/29 08:02:15;;;;;;;15.85;5.60;;;;;;;;;;5034610;28;20037;-69
2022/08/29 08:04:43;;;;;;;25.65;5.05;;;;;;;;;;5034274;28;20085;-69
2022/08/29 08:07:09;;;;;;;30.38;6.03;;;;;;;;;;5034580;28;20056;-67
2022/08/29 08:09:36;;;;;;;19.67;4.95;;;;;;;;;;5035173;28;20050;-69
2022/08/29 08:12:02;;;;;;;10.27;4.75;;;;;;;;;;5034343;28;20116;-69
2022/08/29 08:14:28;;;;;;;12.00;4.47;;;;;;;;;;5034826;28;20076;-69
2022/08/29 08:16:54;;;;;;;12.55;3.88;;;;;;;;;;5034012;28;20400;-69
2022/08/29 08:19:20;;;;;;;6.15;3.35;;;;;;;;;;5034488;28;20048;-69
2022/08/29 08:21:46;;;;;;;7.07;3.08;;;;;;;;;;5034494;28;20511;-69
2022/08/29 08:24:13;;;;;;;3.65;2.75;;;;;;;;;;5034392;28;20484;-69
2022/08/29 08:26:39;;;;;;;5.88;3.50;;;;;;;;;;5034233;28;20480;-69
2022/08/29 08:29:05;;;;;;;3.45;2.92;;;;;;;;;;5033929;28;20044;-69
2022/08/29 08:31:31;;;;;;;6.10;2.88;;;;;;;;;;5034645;28;20046;-69
2022/08/29 08:33:57;;;;;;;3.15;2.85;;;;;;;;;;5034062;28;20037;-69
2022/08/29 08:36:27;;;;;;;2.90;2.70;;;;;;;;;;5034269;28;20038;-69
2022/08/29 08:38:54;;;;;;;4.75;2.97;;;;;;;;;;5033662;28;20037;-69
2022/08/29 08:41:29;;;;;;;2.58;2.38;;;;;;;;;;5034212;28;20033;-69
2022/08/29 08:43:57;;;;;;;3.08;2.80;;;;;;;;;;5034107;28;20042;-69
2022/08/29 08:46:43;;;;;;;3.22;2.55;;;;;;;;;;5034450;28;20045;-69
2022/08/29 08:49:12;;;;;;;4.75;2.72;;;;;;;;;;5033982;28;20068;-69
2022/08/29 08:51:42;;;;;;;2.92;2.72;;;;;;;;;;5035952;28;20041;-69
2022/08/29 08:54:12;;;;;;;3.35;3.05;;;;;;;;;;5038353;28;20041;-69
2022/08/29 08:56:42;;;;;;;3.25;2.65;;;;;;;;;;5038433;28;20136;-69
2022/08/29 08:59:13;;;;;;;5.93;2.90;;;;;;;;;;5037447;28;20057;-69
2022/08/29 09:01:39;;;;;;;;;;;;;;;;;;5039181;28;20049;-69
2022/08/29 09:04:24;;;;;;;3.08;2.33;;;;;;;;;;5037725;28;20292;-69
2022/08/29 09:07:00;;;;;;;5.05;2.65;;;;;;;;;;5037483;28;20052;-69
2022/08/29 09:09:26;;;;;;;3.55;2.72;;;;;;;;;;5037632;28;20503;-69
2022/08/29 09:12:00;;;;;;;2.35;2.20;;;;;;;;;;5037640;28;20136;-69
2022/08/29 09:14:32;;;;;;;3.42;2.42;;;;;;;;;;5037424;28;20041;-69
2022/08/29 09:16:59;;;;;;;2.60;2.40;;;;;;;;;;5037405;28;20132;-69
2022/08/29 09:19:26;;;;;;;3.13;2.83;;;;;;;;;;5037703;28;20511;-69
2022/08/29 09:21:54;;;;;;;3.05;2.75;;;;;;;;;;5037618;28;20099;-69
2022/08/29 09:24:24;;;;;;;2.88;2.60;;;;;;;;;;5038311;28;20033;-69
2022/08/29 09:26:50;;;;;;;3.33;3.05;;;;;;;;;;5037800;28;20076;-69
2022/08/29 09:29:19;;;;;;;2.95;2.30;;;;;;;;;;5037504;28;20049;-69
2022/08/29 09:31:46;;;;;;;4.18;2.95;;;;;;;;;;5037025;28;20037;-69
2022/08/29 09:34:14;;;;;;;3.60;2.60;;;;;;;;;;5037381;28;20049;-69
2022/08/29 09:36:44;;;;;;;2.78;2.58;;;;;;;;;;5037008;28;20033;-69
2022/08/29 09:39:11;;;;;;;;;;;;;;;;;;5037150;28;20120;-69
2022/08/29 09:41:37;;;;;;;3.03;2.53;;;;;;;;;;5037481;28;19999;-69
2022/08/29 09:44:04;;;;;;;3.47;2.47;;;;;;;;;;5036962;28;20064;-69
2022/08/29 09:46:30;;;;;;;3.67;2.00;;;;;;;;;;5036792;28;20041;-69
2022/08/29 09:48:59;;;;;;;2.40;2.10;;;;;;;;;;5037162;28;20052;-69
2022/08/29 09:51:35;;;;;;;3.80;1.80;;;;;;;;;;5036649;28;20045;-69
2022/08/29 09:54:11;;;;;;;3.53;2.10;;;;;;;;;;5037022;28;20128;-69
2022/08/29 09:56:39;;;;;;;2.95;1.90;;;;;;;;;;5036997;28;20041;-69
2022/08/29 09:59:19;;;;;;;3.65;1.98;;;;;;;;;;5036387;28;20064;-69
2022/08/29 10:01:45;;;;;;;2.85;2.25;;;;;;;;;;5037118;28;20041;-69
2022/08/29 10:04:11;;;;;;;2.40;2.10;;;;;;;;;;5037081;28;20065;-69
2022/08/29 10:06:39;;;;;;;7.35;2.47;;;;;;;;;;5036749;28;20073;-69
2022/08/29 10:09:05;;;;;;;3.40;2.50;;;;;;;;;;5036413;28;20049;-69
2022/08/29 10:11:34;;;;;;;2.17;1.95;;;;;;;;;;5036431;28;20176;-69
2022/08/29 10:14:03;;;;;;;3.00;2.20;;;;;;;;;;5036221;28;20148;-69
2022/08/29 10:16:36;;;;;;;3.22;2.22;;;;;;;;;;5036218;28;20527;-69
2022/08/29 10:19:04;;;;;;;4.43;2.35;;;;;;;;;;5035941;28;20404;-69
2022/08/29 10:21:30;;;;;;;2.70;2.40;;;;;;;;;;5036389;28;20073;-69
2022/08/29 10:23:57;;;;;;;2.38;2.17;;;;;;;;;;5036204;28;20509;-69
2022/08/29 10:26:26;;;;;;;3.30;2.30;;;;;;;;;;5036269;28;20044;-69
2022/08/29 10:29:08;;;;;;;3.00;2.70;;;;;;;;;;5036211;28;20511;-69
2022/08/29 10:31:43;;;;;;;5.15;2.90;;;;;;;;;;5036215;28;20030;-69
2022/08/29 10:34:10;;;;;;;4.25;2.58;;;;;;;;;;5037032;28;20033;-69
2022/08/29 10:36:40;;;;;;;3.80;2.58;;;;;;;;;;5035851;28;20037;-69
2022/08/29 10:39:13;;;;;;;2.60;2.40;;;;;;;;;;5036844;28;20045;-69
2022/08/29 10:41:59;;;;;;;2.40;2.20;;;;;;;;;;5036662;28;20487;-69
2022/08/29 10:44:43;;;;;;;2.50;2.30;;;;;;;;;;5036142;28;20069;-69
2022/08/29 10:47:13;;;;;;;5.28;2.22;;;;;;;;;;5036558;28;20053;-69
2022/08/29 10:49:39;;;;;;;4.70;2.58;;;;;;;;;;5035625;28;20042;-69
2022/08/29 10:52:31;;;;;;;3.10;2.42;;;;;;;;;;5035840;28;20033;-69
2022/08/29 10:55:13;;;;;;;5.40;2.50;;;;;;;;;;5032708;28;20464;-69
2022/08/29 10:58:11;;;;;;;6.13;3.03;;;;;;;;;;5035657;28;20069;-69
2022/08/29 11:00:42;;;;;;;4.55;2.38;;;;;;;;;;5002417;28;20618;-69
2022/08/29 11:03:08;;;;;;;;;;;;;;;;;;5036774;28;20068;-69
2022/08/29 11:05:43;;;;;;;6.78;2.70;;;;;;;;;;5035416;28;20407;-69
2022/08/29 11:08:12;;;;;;;6.70;2.67;;;;;;;;;;5035958;28;20053;-69
2022/08/29 11:10:41;;;;;;;9.70;3.33;;;;;;;;;;5035606;28;20096;-69
2022/08/29 11:13:13;;;;;;;6.28;2.72;;;;;;;;;;5035210;28;20068;-69
2022/08/29 11:15:42;;;;;;;3.50;2.70;;;;;;;;;;5034907;28;20044;-69
2022/08/29 11:18:31;;;;;;;3.03;2.35;;;;;;;;;;5036235;28;20045;-69
2022/08/29 11:21:03;;;;;;;5.85;2.40;;;;;;;;;;5035912;28;20041;-69
2022/08/29 11:23:42;;;;;;;5.55;2.65;;;;;;;;;;5035334;28;20116;-69
2022/08/29 11:26:15;;;;;;;5.82;2.58;;;;;;;;;;5035639;28;20068;-69
2022/08/29 11:28:45;;;;;;;8.43;2.70;;;;;;;;;;5034432;28;20072;-69
2022/08/29 11:31:21;;;;;;;4.53;2.28;;;;;;;;;;5035829;28;20510;-69
2022/08/29 11:33:51;;;;;;;4.28;2.75;;;;;;;;;;5035184;28;20030;-69
2022/08/29 11:36:34;;;;;;;3.85;2.83;;;;;;;;;;5035056;28;20605;-69
2022/08/29 11:39:00;;;;;;;4.05;2.63;;;;;;;;;;5035412;28;20052;-69
2022/08/29 11:41:28;;;;;;;2.83;2.35;;;;;;;;;;5035309;28;20045;-69
2022/08/29 11:43:58;;;;;;;3.00;2.58;;;;;;;;;;5034543;28;20432;-69
2022/08/29 11:46:53;;;;;;;3.67;2.35;;;;;;;;;;5035085;28;20052;-69
2022/08/29 11:49:40;;;;;;;3.25;2.80;;;;;;;;;;5021722;28;20041;-69
2022/08/29 11:52:09;;;;;;;3.20;2.90;;;;;;;;;;5034665;28;20046;-69
2022/08/29 11:54:36;;;;;;;2.70;2.50;;;;;;;;;;5034802;28;20124;-69
2022/08/29 11:57:05;;;;;;;4.00;3.00;;;;;;;;;;5034269;28;20046;-69
2022/08/29 11:59:43;;;;;;;4.32;2.95;;;;;;;;;;5035559;28;20056;-69
2022/08/29 12:02:10;;;;;;;3.55;3.10;;;;;;;;;;5034649;28;20036;-69
2022/08/29 12:04:51;;;;;;;5.35;2.55;;;;;;;;;;5035290;28;20044;-69
2022/08/29 12:07:18;;;;;;;3.42;2.75;;;;;;;;;;5034573;28;20125;-69
2022/08/29 12:09:47;;;;;;;4.57;2.45;;;;;;;;;;5034580;28;20493;-69
2022/08/29 12:12:15;;;;;;;4.30;2.58;;;;;;;;;;5034464;28;20038;-69
2022/08/29 12:14:46;;;;;;;5.50;2.90;;;;;;;;;;5035169;28;20033;-69
2022/08/29 12:17:21;;;;;;;4.78;2.92;;;;;;;;;;5035606;28;20048;-69
2022/08/29 12:19:50;;;;;;;3.30;3.00;;;;;;;;;;5034777;28;20068;-69
2022/08/29 12:22:35;;;;;;;4.28;2.55;;;;;;;;;;5035090;28;20029;-69
2022/08/29 12:25:21;;;;;;;5.30;2.75;;;;;;;;;;5034210;28;20091;-69
2022/08/29 12:28:01;;;;;;;3.20;2.60;;;;;;;;;;5034096;28;20053;-69
2022/08/29 12:30:33;;;;;;;5.18;2.80;;;;;;;;;;5034364;28;20047;-69
2022/08/29 12:33:03;;;;;;;3.72;2.83;;;;;;;;;;5035293;28;20080;-69
2022/08/29 12:35:44;;;;;;;3.28;2.72;;;;;;;;;;5034628;28;20077;-69
2022/08/29 12:38:39;;;;;;;4.10;2.65;;;;;;;;;;5034273;28;20073;-69
2022/08/29 12:41:05;;;;;;;3.15;2.78;;;;;;;;;;5021201;28;20449;-69
2022/08/29 12:43:36;;;;;;;10.15;2.67;;;;;;;;;;5033993;28;20030;-69
2022/08/29 12:46:08;;;;;;;3.28;2.60;;;;;;;;;;5034453;28;20045;-69
2022/08/29 12:48:39;;;;;;;4.65;2.53;;;;;;;;;;5034160;28;20041;-69
2022/08/29 12:51:05;;;;;;;3.25;2.95;;;;;;;;;;5033981;28;20045;-69
2022/08/29 12:53:33;;;;;;;2.97;2.60;;;;;;;;;;5034413;28;20472;-69
2022/08/29 12:56:11;;;;;;;3.50;3.00;;;;;;;;;;5034094;28;20038;-69
2022/08/29 12:58:43;;;;;;;7.57;2.88;;;;;;;;;;5034537;28;20065;-69
2022/08/29 13:01:29;;;;;;;9.70;3.17;;;;;;;;;;5034771;28;20045;-69
2022/08/29 13:04:01;;;;;;;9.38;2.90;;;;;;;;;;5033894;28;20480;-69
2022/08/29 13:06:27;;;;;;;7.43;2.70;;;;;;;;;;5034046;28;20034;-69
2022/08/29 13:08:53;;;;;;;5.70;2.50;;;;;;;;;;5034966;28;20377;-69
2022/08/29 13:11:21;;;;;;;5.82;2.97;;;;;;;;;;5034387;28;20092;-69
2022/08/29 13:13:48;;;;;;;2.58;2.30;;;;;;;;;;5034193;28;20120;-69
2022/08/29 13:16:28;;;;;;;9.07;2.55;;;;;;;;;;5034212;28;20030;-69
2022/08/29 13:18:57;;;;;;;4.90;2.53;;;;;;;;;;5034922;28;20461;-69
2022/08/29 13:21:31;;;;;;;3.78;2.30;;;;;;;;;;5034257;28;20123;-69
2022/08/29 13:24:16;;;;;;;3.45;2.30;;;;;;;;;;5034227;28;20041;-69
2022/08/29 13:26:51;;;;;;;4.53;2.17;;;;;;;;;;5034511;28;20449;-69
2022/08/29 13:29:33;;;;;;;3.00;2.10;;;;;;;;;;5034231;28;20049;-69
2022/08/29 13:32:22;;;;;;;5.20;2.22;;;;;;;;;;5034371;28;20120;-69
2022/08/29 13:35:06;;;;;;;3.83;2.30;;;;;;;;;;5033523;28;20048;-69
2022/08/29 13:37:34;;;;;;;5.78;2.45;;;;;;;;;;5036238;28;20048;-69
2022/08/29 13:40:19;;;;;;;3.85;2.13;;;;;;;;;;5037545;28;20038;-69
2022/08/29 13:42:45;;;;;;;2.38;2.17;;;;;;;;;;5037753;28;20037;-69
2022/08/29 13:45:12;;;;;;;3.83;2.10;;;;;;;;;;5037491;28;20041;-69
2022/08/29 13:47:41;;;;;;;5.72;2.78;;;;;;;;;;5037674;28;20041;-69
2022/08/29 13:50:08;;;;;;;3.70;2.00;;;;;;;;;;5037313;28;20046;-69
2022/08/29 13:52:35;;;;;;;3.42;2.40;;;;;;;;;;5037839;28;20061;-69
2022/08/29 13:55:01;;;;;;;5.85;2.10;;;;;;;;;;5036977;28;20128;-69
2022/08/29 13:57:30;;;;;;;4.15;2.28;;;;;;;;;;5037306;28;20116;-70
2022/08/29 13:59:57;;;;;;;6.60;2.08;;;;;;;;;;5036990;28;20412;-69
2022/08/29 14:02:24;;;;;;;6.53;2.88;;;;;;;;;;5037139;28;20034;-69
2022/08/29 14:04:50;;;;;;;3.85;2.30;;;;;;;;;;5037030;28;20033;-69
2022/08/29 14:07:27;;;;;;;6.38;2.10;;;;;;;;;;5037378;28;20049;-69
2022/08/29 14:09:54;;;;;;;3.20;2.20;;;;;;;;;;5037145;28;20046;-69
2022/08/29 14:12:20;;;;;;;5.10;2.20;;;;;;;;;;5036436;28;20033;-69
2022/08/29 14:14:46;;;;;;;4.25;2.00;;;;;;;;;;5036689;28;20037;-69
2022/08/29 14:17:13;;;;;;;4.75;2.00;;;;;;;;;;5037247;28;20472;-69
2022/08/29 14:19:40;;;;;;;2.40;2.10;;;;;;;;;;5036436;28;20112;-69
2022/08/29 14:22:07;;;;;;;3.83;2.45;;;;;;;;;;5036830;28;20076;-69
2022/08/29 14:24:33;;;;;;;4.45;2.25;;;;;;;;;;5036700;28;20036;-69
2022/08/29 14:27:00;;;;;;;3.70;2.08;;;;;;;;;;5036842;28;20048;-69
2022/08/29 14:29:26;;;;;;;2.50;2.00;;;;;;;;;;5036677;28;20041;-69
2022/08/29 14:31:53;;;;;;;5.97;2.10;;;;;;;;;;5036558;28;20034;-69
2022/08/29 14:34:20;;;;;;;4.85;2.15;;;;;;;;;;5036502;28;20044;-69
2022/08/29 14:36:46;;;;;;;4.20;2.20;;;;;;;;;;5036791;28;20076;-69
2022/08/29 14:39:12;;;;;;;5.65;2.13;;;;;;;;;;5036508;28;20037;-69
2022/08/29 14:41:40;;;;;;;3.88;2.45;;;;;;;;;;5037018;28;20095;-69
2022/08/29 14:44:06;;;;;;;2.55;2.10;;;;;;;;;;5036206;28;20041;-69
2022/08/29 14:46:32;;;;;;;5.10;1.67;;;;;;;;;;5036238;28;20087;-69
2022/08/29 14:48:58;;;;;;;2.85;2.13;;;;;;;;;;5035282;28;20412;-69
2022/08/29 14:51:24;;;;;;;3.90;1.88;;;;;;;;;;5036311;28;20087;-69
2022/08/29 14:53:52;;;;;;;3.78;2.00;;;;;;;;;;5036159;28;20033;-69
2022/08/29 14:56:19;;;;;;;2.00;1.80;;;;;;;;;;5035791;28;20037;-69